Stena Suede — ZCEF5 — position and weather

sailwx.info

Track history (hours):
 
Tides and Currents Weather Stations Pressure Air Temp Water Temp Dewpoint Dewpoint Depression Visibility Wind Speed Wind Dir Waves Ship Positions

Stena Suede

Last reported at 2018-Jul-08 19:19 UTC. Time now 2018-Jul-17 07:40 UTC.
Position N 09°11' W 079°53'.
Warning: this ship's position is 8 days out of date.

Length 274 m; draft 14.5 m.

Type: Tanker. MMSI: 310622000.

Date/timePositionNaut miles runAvg speedWind from/ knotsBaromVisibWave heightAir tempDewpointWater temp
2018-Jul-08 19:19N 09°11' W 079°53'3 7.5
2018-Jul-08 18:54N 09°13' W 079°55'3 1.6
2018-Jul-08 17:14N 09°15' W 079°54'0 0.1
2018-Jul-08 16:50N 09°15' W 079°54'0 0.1
2018-Jul-08 16:29N 09°15' W 079°54'0 0.0
2018-Jul-08 15:53N 09°15' W 079°54'0 0.1
2018-Jul-08 13:50N 09°15' W 079°54'0 0.2
2018-Jul-08 13:29N 09°15' W 079°54'1 0.6
2018-Jul-08 11:56N 09°16' W 079°55'0 0.3
2018-Jul-08 11:25N 09°17' W 079°55'0 0.2
2018-Jul-08 10:59N 09°17' W 079°55'0 0.4
2018-Jul-08 09:56N 09°17' W 079°55'1 2.1
2018-Jul-08 09:27N 09°18' W 079°55'2 4.9
2018-Jul-08 09:01N 09°20' W 079°55'3 5.0
2018-Jul-08 08:30N 09°23' W 079°55'3 5.4
2018-Jul-08 08:00N 09°25' W 079°55'1 2.8
2018-Jul-08 07:30N 09°26' W 079°56'0 0.8
2018-Jul-08 06:57N 09°26' W 079°56'0 0.0
2018-Jul-08 06:15N 09°26' W 079°56'0 0.0
2018-Jul-08 06:00N 09°26' W 079°56'0 0.0
2018-Jul-08 05:30N 09°26' W 079°56'0 0.0
2018-Jul-08 04:54N 09°26' W 079°56'0 0.1
2018-Jul-08 04:30N 09°26' W 079°56'0 0.0
2018-Jul-08 04:00N 09°26' W 079°56'0 0.0
2018-Jul-08 03:30N 09°26' W 079°56'0 0.1
2018-Jul-08 03:00N 09°26' W 079°56'0 0.0
2018-Jul-08 02:30N 09°26' W 079°56'0 0.0
2018-Jul-08 02:00N 09°26' W 079°56'0 0.0
2018-Jul-08 01:30N 09°26' W 079°56'0 0.0
2018-Jul-08 01:00N 09°26' W 079°56'0 0.0
2018-Jul-08 00:27N 09°26' W 079°56'0 0.0
2018-Jul-08 00:00N 09°26' W 079°56'0 0.0
2018-Jul-07 23:30N 09°26' W 079°56'0 0.0
2018-Jul-07 23:00N 09°26' W 079°56'0 0.0
2018-Jul-07 22:30N 09°26' W 079°56'0 0.0
2018-Jul-07 21:57N 09°26' W 079°56'0 0.0
2018-Jul-07 21:30N 09°26' W 079°56'0 0.0
2018-Jul-07 20:48N 09°26' W 079°56'0 0.0
2018-Jul-07 20:15N 09°26' W 079°56'0 0.0
2018-Jul-07 19:54N 09°26' W 079°56'0 0.0
2018-Jul-07 19:30N 09°26' W 079°56'0 0.0
2018-Jul-07 19:00N 09°26' W 079°56'0 0.0
2018-Jul-07 18:27N 09°26' W 079°56'0 0.0
2018-Jul-07 17:57N 09°26' W 079°56'0 0.0
2018-Jul-07 17:27N 09°26' W 079°56'0 0.0
2018-Jul-07 17:00N 09°26' W 079°56'0 0.0
2018-Jul-07 16:30N 09°26' W 079°56'0 0.1
2018-Jul-07 16:00N 09°26' W 079°57'0 0.2
2018-Jul-07 15:21N 09°26' W 079°56'1 1.5
2018-Jul-07 15:00N 09°26' W 079°56'0 0.5
2018-Jul-07 14:28N 09°26' W 079°56'0 0.1
2018-Jul-07 13:55N 09°26' W 079°56'0 0.2
2018-Jul-07 13:25N 09°26' W 079°56'0 1.1
2018-Jul-07 13:00N 09°26' W 079°55'2 3.6
2018-Jul-07 12:31N 09°28' W 079°55'6 9.2
2018-Jul-07 11:53N 09°33' W 079°53'611.1
2018-Jul-07 11:21N 09°38' W 079°50'  
Track history (hours):
 
Tides and Currents Weather Stations Pressure Air Temp Water Temp Dewpoint Dewpoint Depression Visibility Wind Speed Wind Dir Waves Ship Positions

Stena Suede

Last reported at 2018-Jul-08 19:19 UTC. Time now 2018-Jul-17 07:40 UTC.
Position N 09°11' W 079°53'.
Warning: this ship's position is 8 days out of date.

Length 274 m; draft 14.5 m.

Type: Tanker. MMSI: 310622000.

Date/timePositionNaut miles runAvg speedWind from/ knotsBaromVisibWave heightAir tempDewpointWater temp
2018-Jul-08 19:19N 09°11' W 079°53'3 7.5
2018-Jul-08 18:54N 09°13' W 079°55'3 1.6
2018-Jul-08 17:14N 09°15' W 079°54'0 0.1
2018-Jul-08 16:50N 09°15' W 079°54'0 0.1
2018-Jul-08 16:29N 09°15' W 079°54'0 0.0
2018-Jul-08 15:53N 09°15' W 079°54'0 0.1
2018-Jul-08 13:50N 09°15' W 079°54'0 0.2
2018-Jul-08 13:29N 09°15' W 079°54'1 0.6
2018-Jul-08 11:56N 09°16' W 079°55'0 0.3
2018-Jul-08 11:25N 09°17' W 079°55'0 0.2
2018-Jul-08 10:59N 09°17' W 079°55'0 0.4
2018-Jul-08 09:56N 09°17' W 079°55'1 2.1
2018-Jul-08 09:27N 09°18' W 079°55'2 4.9
2018-Jul-08 09:01N 09°20' W 079°55'3 5.0
2018-Jul-08 08:30N 09°23' W 079°55'3 5.4
2018-Jul-08 08:00N 09°25' W 079°55'1 2.8
2018-Jul-08 07:30N 09°26' W 079°56'0 0.8
2018-Jul-08 06:57N 09°26' W 079°56'0 0.0
2018-Jul-08 06:15N 09°26' W 079°56'0 0.0
2018-Jul-08 06:00N 09°26' W 079°56'0 0.0
2018-Jul-08 05:30N 09°26' W 079°56'0 0.0
2018-Jul-08 04:54N 09°26' W 079°56'0 0.1
2018-Jul-08 04:30N 09°26' W 079°56'0 0.0
2018-Jul-08 04:00N 09°26' W 079°56'0 0.0
2018-Jul-08 03:30N 09°26' W 079°56'0 0.1
2018-Jul-08 03:00N 09°26' W 079°56'0 0.0
2018-Jul-08 02:30N 09°26' W 079°56'0 0.0
2018-Jul-08 02:00N 09°26' W 079°56'0 0.0
2018-Jul-08 01:30N 09°26' W 079°56'0 0.0
2018-Jul-08 01:00N 09°26' W 079°56'0 0.0
2018-Jul-08 00:27N 09°26' W 079°56'0 0.0
2018-Jul-08 00:00N 09°26' W 079°56'0 0.0
2018-Jul-07 23:30N 09°26' W 079°56'0 0.0
2018-Jul-07 23:00N 09°26' W 079°56'0 0.0
2018-Jul-07 22:30N 09°26' W 079°56'0 0.0
2018-Jul-07 21:57N 09°26' W 079°56'0 0.0
2018-Jul-07 21:30N 09°26' W 079°56'0 0.0
2018-Jul-07 20:48N 09°26' W 079°56'0 0.0
2018-Jul-07 20:15N 09°26' W 079°56'0 0.0
2018-Jul-07 19:54N 09°26' W 079°56'0 0.0
2018-Jul-07 19:30N 09°26' W 079°56'0 0.0
2018-Jul-07 19:00N 09°26' W 079°56'0 0.0
2018-Jul-07 18:27N 09°26' W 079°56'0 0.0
2018-Jul-07 17:57N 09°26' W 079°56'0 0.0
2018-Jul-07 17:27N 09°26' W 079°56'0 0.0
2018-Jul-07 17:00N 09°26' W 079°56'0 0.0
2018-Jul-07 16:30N 09°26' W 079°56'0 0.1
2018-Jul-07 16:00N 09°26' W 079°57'0 0.2
2018-Jul-07 15:21N 09°26' W 079°56'1 1.5
2018-Jul-07 15:00N 09°26' W 079°56'0 0.5
2018-Jul-07 14:28N 09°26' W 079°56'0 0.1
2018-Jul-07 13:55N 09°26' W 079°56'0 0.2
2018-Jul-07 13:25N 09°26' W 079°56'0 1.1
2018-Jul-07 13:00N 09°26' W 079°55'2 3.6
2018-Jul-07 12:31N 09°28' W 079°55'6 9.2
2018-Jul-07 11:53N 09°33' W 079°53'611.1
2018-Jul-07 11:21N 09°38' W 079°50'  

Dump ship's entire track history